createdAt,value
2022-12-18T00:00:06.000Z,97332
2022-12-18T00:05:06.000Z,97342
2022-12-18T00:10:06.000Z,97338
2022-12-18T00:15:06.000Z,97346
2022-12-18T00:20:06.000Z,97352
2022-12-18T00:25:06.000Z,97350
2022-12-18T00:30:06.000Z,97351
2022-12-18T00:35:06.000Z,97355
2022-12-18T00:40:06.000Z,97339
2022-12-18T00:45:06.000Z,97359
2022-12-18T00:50:06.000Z,97352
2022-12-18T00:55:06.000Z,97367
2022-12-18T01:00:06.000Z,97362
2022-12-18T01:05:06.000Z,97360
2022-12-18T01:10:06.000Z,97358
2022-12-18T01:15:06.000Z,97352
2022-12-18T01:20:06.000Z,97356
2022-12-18T01:25:06.000Z,97371
2022-12-18T01:30:06.000Z,97380
2022-12-18T01:35:06.000Z,97378
2022-12-18T01:40:06.000Z,97382
2022-12-18T01:45:06.000Z,97380
2022-12-18T01:50:06.000Z,97397
2022-12-18T01:55:06.000Z,97403
2022-12-18T02:00:06.000Z,97411
2022-12-18T02:05:06.000Z,97407
2022-12-18T02:10:06.000Z,97405
2022-12-18T02:15:06.000Z,97398
2022-12-18T02:20:06.000Z,97404
2022-12-18T02:25:06.000Z,97405
2022-12-18T02:30:06.000Z,97402
2022-12-18T02:35:06.000Z,97407
2022-12-18T02:40:06.000Z,97405
2022-12-18T02:45:06.000Z,97406
2022-12-18T02:50:06.000Z,97420
2022-12-18T02:55:06.000Z,97422
2022-12-18T03:00:06.000Z,97427
2022-12-18T03:05:06.000Z,97416
2022-12-18T03:10:06.000Z,97420
2022-12-18T03:15:06.000Z,97429
2022-12-18T03:20:06.000Z,97424
2022-12-18T03:25:06.000Z,97433
2022-12-18T03:30:06.000Z,97439
2022-12-18T03:35:06.000Z,97455
2022-12-18T03:40:06.000Z,97446
2022-12-18T03:45:06.000Z,97450
2022-12-18T03:50:06.000Z,97451
2022-12-18T03:55:06.000Z,97457
2022-12-18T04:00:06.000Z,97456
2022-12-18T04:05:06.000Z,97465
2022-12-18T04:10:06.000Z,97468
2022-12-18T04:15:06.000Z,97462
2022-12-18T04:20:06.000Z,97464
2022-12-18T04:25:06.000Z,97474
2022-12-18T04:30:06.000Z,97473
2022-12-18T04:35:06.000Z,97477
2022-12-18T04:40:06.000Z,97475
2022-12-18T04:45:06.000Z,97476
2022-12-18T04:50:06.000Z,97477
2022-12-18T04:55:06.000Z,97477
2022-12-18T05:00:06.000Z,97481
2022-12-18T05:05:06.000Z,97486
2022-12-18T05:10:06.000Z,97470
2022-12-18T05:15:06.000Z,97466
2022-12-18T05:20:06.000Z,97478
2022-12-18T05:25:06.000Z,97471
2022-12-18T05:30:06.000Z,97474
2022-12-18T05:35:06.000Z,97478
2022-12-18T05:40:06.000Z,97468
2022-12-18T05:45:06.000Z,97472
2022-12-18T05:50:06.000Z,97478
2022-12-18T05:55:06.000Z,97478
2022-12-18T06:00:06.000Z,97474
2022-12-18T06:05:06.000Z,97479
2022-12-18T06:10:06.000Z,97489
2022-12-18T06:15:06.000Z,97488
2022-12-18T06:20:06.000Z,97488
2022-12-18T06:25:06.000Z,97492
2022-12-18T06:30:06.000Z,97494
2022-12-18T06:35:06.000Z,97497
2022-12-18T06:40:06.000Z,97500
2022-12-18T06:45:06.000Z,97498
2022-12-18T06:50:06.000Z,97508
2022-12-18T06:55:06.000Z,97517
2022-12-18T07:00:06.000Z,97516
2022-12-18T07:05:06.000Z,97517
2022-12-18T07:10:06.000Z,97530
2022-12-18T07:15:06.000Z,97524
2022-12-18T07:20:06.000Z,97532
2022-12-18T07:25:06.000Z,97543
2022-12-18T07:30:06.000Z,97545
2022-12-18T07:35:06.000Z,97560
2022-12-18T07:40:06.000Z,97566
2022-12-18T07:45:06.000Z,97581
2022-12-18T07:50:06.000Z,97581
2022-12-18T07:55:06.000Z,97573
2022-12-18T08:00:06.000Z,97584
2022-12-18T08:05:06.000Z,97594
2022-12-18T08:10:06.000Z,97600
2022-12-18T08:15:06.000Z,97600
2022-12-18T08:20:06.000Z,97604
2022-12-18T08:25:06.000Z,97611
2022-12-18T08:30:06.000Z,97612
2022-12-18T08:35:06.000Z,97612
2022-12-18T08:40:06.000Z,97595
2022-12-18T08:45:06.000Z,97590
2022-12-18T08:50:06.000Z,97596
2022-12-18T08:55:06.000Z,97594
2022-12-18T09:00:06.000Z,97597
2022-12-18T09:05:06.000Z,97578
2022-12-18T09:10:06.000Z,97583
2022-12-18T09:15:06.000Z,97581
2022-12-18T09:20:06.000Z,97591
2022-12-18T09:25:06.000Z,97595
2022-12-18T09:30:06.000Z,97594
2022-12-18T09:35:06.000Z,97600
2022-12-18T09:40:06.000Z,97598
2022-12-18T09:45:06.000Z,97607
2022-12-18T09:50:06.000Z,97604
2022-12-18T09:55:06.000Z,97607
2022-12-18T10:00:06.000Z,97604
2022-12-18T10:05:06.000Z,97596
2022-12-18T10:10:06.000Z,97614
2022-12-18T10:15:06.000Z,97613
2022-12-18T10:20:06.000Z,97616
2022-12-18T10:25:06.000Z,97621
2022-12-18T10:30:06.000Z,97604
2022-12-18T10:35:06.000Z,97597
2022-12-18T10:40:06.000Z,97611
2022-12-18T10:45:06.000Z,97590
2022-12-18T10:50:06.000Z,97588
2022-12-18T10:55:06.000Z,97598
2022-12-18T11:00:06.000Z,97594
2022-12-18T11:05:06.000Z,97589
2022-12-18T11:10:06.000Z,97593
2022-12-18T11:15:06.000Z,97580
2022-12-18T11:20:06.000Z,97576
2022-12-18T11:25:06.000Z,97580
2022-12-18T11:30:06.000Z,97579
2022-12-18T11:35:06.000Z,97577
2022-12-18T11:40:06.000Z,97567
2022-12-18T11:45:06.000Z,97558
2022-12-18T11:50:06.000Z,97550
2022-12-18T11:55:06.000Z,97548
2022-12-18T12:00:06.000Z,97548
2022-12-18T12:05:06.000Z,97546
2022-12-18T12:10:06.000Z,97551
2022-12-18T12:15:06.000Z,97535
2022-12-18T12:20:06.000Z,97541
2022-12-18T12:25:06.000Z,97539
2022-12-18T12:30:06.000Z,97526
2022-12-18T12:35:06.000Z,97529
2022-12-18T12:40:06.000Z,97518
2022-12-18T12:45:06.000Z,97521
2022-12-18T12:50:06.000Z,97515
2022-12-18T12:55:06.000Z,97510
2022-12-18T13:00:06.000Z,97512
2022-12-18T13:05:06.000Z,97516
2022-12-18T13:10:06.000Z,97517
2022-12-18T13:15:06.000Z,97520
2022-12-18T13:20:06.000Z,97512
2022-12-18T13:25:06.000Z,97520
2022-12-18T13:30:06.000Z,97518
2022-12-18T13:35:06.000Z,97518
2022-12-18T13:40:06.000Z,97516
2022-12-18T13:45:06.000Z,97519
2022-12-18T13:50:06.000Z,97523
2022-12-18T13:55:06.000Z,97525
2022-12-18T14:00:06.000Z,97522
2022-12-18T14:05:06.000Z,97532
2022-12-18T14:10:06.000Z,97514
2022-12-18T14:15:06.000Z,97520
2022-12-18T14:20:06.000Z,97512
2022-12-18T14:25:06.000Z,97514
2022-12-18T14:30:06.000Z,97506
2022-12-18T14:35:06.000Z,97503
2022-12-18T14:40:06.000Z,97508
2022-12-18T14:44:51.000Z,97501
2022-12-18T14:50:06.000Z,97505
2022-12-18T14:55:06.000Z,97506
2022-12-18T15:00:06.000Z,97510
2022-12-18T15:05:07.000Z,97503
2022-12-18T15:10:07.000Z,97504
2022-12-18T15:15:06.000Z,97508
2022-12-18T15:20:07.000Z,97511
2022-12-18T15:25:07.000Z,97505
2022-12-18T15:30:07.000Z,97521
2022-12-18T15:35:07.000Z,97522
2022-12-18T15:40:07.000Z,97518
2022-12-18T15:45:07.000Z,97526
2022-12-18T15:50:07.000Z,97534
2022-12-18T15:55:07.000Z,97530
2022-12-18T16:00:07.000Z,97525
2022-12-18T16:05:07.000Z,97530
2022-12-18T16:10:07.000Z,97534
2022-12-18T16:15:07.000Z,97531
2022-12-18T16:20:07.000Z,97536
2022-12-18T16:25:07.000Z,97541
2022-12-18T16:30:07.000Z,97522
2022-12-18T16:35:07.000Z,97533
2022-12-18T16:40:07.000Z,97526
2022-12-18T16:45:07.000Z,97531
2022-12-18T16:50:07.000Z,97524
2022-12-18T16:55:07.000Z,97522
2022-12-18T17:00:07.000Z,97522
2022-12-18T17:05:07.000Z,97526
2022-12-18T17:10:07.000Z,97517
2022-12-18T17:15:07.000Z,97517
2022-12-18T17:20:07.000Z,97527
2022-12-18T17:25:07.000Z,97526
2022-12-18T17:30:07.000Z,97533
2022-12-18T17:35:07.000Z,97535
2022-12-18T17:40:07.000Z,97529
2022-12-18T17:45:07.000Z,97533
2022-12-18T17:50:07.000Z,97550
2022-12-18T17:55:07.000Z,97545
2022-12-18T18:00:07.000Z,97542
2022-12-18T18:05:07.000Z,97529
2022-12-18T18:10:07.000Z,97528
2022-12-18T18:15:07.000Z,97522
2022-12-18T18:19:52.000Z,97535
2022-12-18T18:25:07.000Z,97535
2022-12-18T18:30:07.000Z,97546
2022-12-18T18:35:07.000Z,97539
2022-12-18T18:40:07.000Z,97540
2022-12-18T18:44:52.000Z,97535
2022-12-18T18:50:07.000Z,97549
2022-12-18T18:55:07.000Z,97539
2022-12-18T19:00:07.000Z,97529
2022-12-18T19:05:07.000Z,97534
2022-12-18T19:09:52.000Z,97521
2022-12-18T19:15:07.000Z,97526
2022-12-18T19:20:07.000Z,97516
2022-12-18T19:25:07.000Z,97518
2022-12-18T19:30:07.000Z,97508
2022-12-18T19:35:07.000Z,97520
2022-12-18T19:39:52.000Z,97527
2022-12-18T19:45:07.000Z,97510
2022-12-18T19:50:07.000Z,97528
2022-12-18T19:55:07.000Z,97524
2022-12-18T20:00:07.000Z,97504
2022-12-18T20:05:07.000Z,97509
2022-12-18T20:10:07.000Z,97515
2022-12-18T20:15:07.000Z,97517
2022-12-18T20:20:07.000Z,97502
2022-12-18T20:25:07.000Z,97504
2022-12-18T20:30:07.000Z,97497
2022-12-18T20:35:07.000Z,97513
2022-12-18T20:40:07.000Z,97509
2022-12-18T20:45:07.000Z,97508
2022-12-18T20:50:07.000Z,97504
2022-12-18T20:55:07.000Z,97504
2022-12-18T20:59:52.000Z,97522
2022-12-18T21:05:07.000Z,97520
2022-12-18T21:10:07.000Z,97512
2022-12-18T21:15:07.000Z,97513
2022-12-18T21:20:07.000Z,97516
2022-12-18T21:25:07.000Z,97512
2022-12-18T21:30:07.000Z,97512
2022-12-18T21:34:52.000Z,97514
2022-12-18T21:40:07.000Z,97496
2022-12-18T21:45:07.000Z,97488
2022-12-18T21:50:07.000Z,97491
2022-12-18T21:55:07.000Z,97486
2022-12-18T21:59:52.000Z,97488
2022-12-18T22:05:07.000Z,97489
2022-12-18T22:10:07.000Z,97486
2022-12-18T22:15:07.000Z,97474
2022-12-18T22:20:07.000Z,97461
2022-12-18T22:25:07.000Z,97462
2022-12-18T22:30:07.000Z,97469
2022-12-18T22:35:07.000Z,97484
2022-12-18T22:39:52.000Z,97486
2022-12-18T22:45:07.000Z,97478
2022-12-18T22:50:07.000Z,97492
2022-12-18T22:55:07.000Z,97475
2022-12-18T23:00:07.000Z,97488
2022-12-18T23:05:07.000Z,97479
2022-12-18T23:10:07.000Z,97479
2022-12-18T23:15:07.000Z,97479
2022-12-18T23:20:07.000Z,97469
2022-12-18T23:25:07.000Z,97466
2022-12-18T23:30:07.000Z,97472
2022-12-18T23:35:07.000Z,97481
2022-12-18T23:40:07.000Z,97473
2022-12-18T23:45:07.000Z,97482
2022-12-18T23:50:07.000Z,97481
2022-12-18T23:55:07.000Z,97476
